createdAt,value
2023-03-04T00:01:32.829Z,11.77
2023-03-04T00:03:59.843Z,11.70
2023-03-04T00:06:26.757Z,12.48
2023-03-04T00:08:54.071Z,11.07
2023-03-04T00:11:20.984Z,12.55
2023-03-04T00:13:47.904Z,12.82
2023-03-04T00:16:14.891Z,11.95
2023-03-04T00:18:42.035Z,12.15
2023-03-04T00:21:08.953Z,13.32
2023-03-04T00:23:35.844Z,10.50
2023-03-04T00:26:02.823Z,12.15
2023-03-04T00:28:29.719Z,12.25
2023-03-04T00:30:56.682Z,11.25
2023-03-04T00:33:23.653Z,12.18
2023-03-04T00:35:50.805Z,12.32
2023-03-04T00:38:17.777Z,13.20
2023-03-04T00:40:44.758Z,17.60
2023-03-04T00:43:11.721Z,12.65
2023-03-04T00:45:38.706Z,12.13
2023-03-04T00:48:05.845Z,11.80
2023-03-04T00:50:32.937Z,12.48
2023-03-04T00:53:00.057Z,12.15
2023-03-04T00:55:27.269Z,9.60
2023-03-04T00:57:54.123Z,9.70
2023-03-04T01:00:21.613Z,10.10
2023-03-04T01:02:48.810Z,8.93
2023-03-04T01:05:16.400Z,9.73
2023-03-04T01:07:43.360Z,8.73
2023-03-04T01:10:13.152Z,9.68
2023-03-04T01:12:41.679Z,8.55
2023-03-04T01:15:11.093Z,8.77
2023-03-04T01:17:40.659Z,8.77
2023-03-04T01:20:09.167Z,8.48
2023-03-04T01:22:36.458Z,8.70
2023-03-04T01:25:04.700Z,8.63
2023-03-04T01:27:32.829Z,9.05
2023-03-04T01:29:59.739Z,9.13
2023-03-04T01:32:26.664Z,9.85
2023-03-04T01:34:53.656Z,7.95
2023-03-04T01:37:20.559Z,8.20
2023-03-04T01:39:47.570Z,8.63
2023-03-04T01:42:21.619Z,8.98
2023-03-04T01:44:49.300Z,9.27
2023-03-04T01:47:16.437Z,8.10
2023-03-04T01:49:43.567Z,8.20
2023-03-04T01:52:14.196Z,7.72
2023-03-04T01:54:41.536Z,6.63
2023-03-04T01:57:24.553Z,6.95
2023-03-04T02:00:31.895Z,7.30
2023-03-04T02:03:20.794Z,5.20
2023-03-04T02:05:50.925Z,6.55
2023-03-04T02:08:21.473Z,6.68
2023-03-04T02:10:48.877Z,7.43
2023-03-04T02:13:36.954Z,6.43
2023-03-04T02:16:05.129Z,5.03
2023-03-04T02:18:32.194Z,4.57
2023-03-04T02:21:29.102Z,5.53
2023-03-04T02:24:03.724Z,5.68
2023-03-04T02:26:32.630Z,6.00
2023-03-04T02:29:01.674Z,6.07
2023-03-04T02:34:05.971Z,4.97
2023-03-04T02:36:34.529Z,3.55
2023-03-04T02:39:19.779Z,5.13
2023-03-04T02:41:52.983Z,5.43
2023-03-04T02:44:25.422Z,5.60
2023-03-04T02:46:54.012Z,5.20
2023-03-04T02:49:22.561Z,5.22
2023-03-04T02:51:58.785Z,6.38
2023-03-04T02:54:25.800Z,4.88
2023-03-04T02:57:05.137Z,3.92
2023-03-04T02:59:35.817Z,4.50
2023-03-04T03:02:04.808Z,5.00
2023-03-04T03:04:32.012Z,5.20
2023-03-04T03:06:59.106Z,5.63
2023-03-04T03:09:26.410Z,5.05
2023-03-04T03:11:53.380Z,4.93
2023-03-04T03:14:20.919Z,5.78
2023-03-04T03:16:48.163Z,4.18
2023-03-04T03:19:15.180Z,4.78
2023-03-04T03:21:42.719Z,4.20
2023-03-04T03:24:11.152Z,4.85
2023-03-04T03:26:39.923Z,5.05
2023-03-04T03:29:07.969Z,6.40
2023-03-04T03:31:34.930Z,4.20
2023-03-04T03:34:01.914Z,5.05
2023-03-04T03:36:28.999Z,5.25
2023-03-04T03:38:56.014Z,4.22
2023-03-04T03:41:22.927Z,4.22
2023-03-04T03:43:49.813Z,3.30
2023-03-04T03:46:16.677Z,3.20
2023-03-04T03:48:43.745Z,4.03
2023-03-04T03:51:10.812Z,4.82
2023-03-04T03:53:37.709Z,5.80
2023-03-04T03:56:05.252Z,5.13
2023-03-04T03:58:32.450Z,3.72
2023-03-04T04:00:59.329Z,3.50
2023-03-04T04:03:26.414Z,3.33
2023-03-04T04:05:53.337Z,5.57
2023-03-04T04:08:20.341Z,3.72
2023-03-04T04:10:47.393Z,3.70
2023-03-04T04:13:14.379Z,3.70
2023-03-04T04:15:41.377Z,3.28
2023-03-04T04:18:08.905Z,3.97
2023-03-04T04:20:36.213Z,4.68
2023-03-04T04:23:04.445Z,3.67
2023-03-04T04:25:31.616Z,3.65
2023-03-04T04:27:58.570Z,3.42
2023-03-04T04:30:25.739Z,5.05
2023-03-04T04:32:52.776Z,3.90
2023-03-04T04:35:20.195Z,3.55
2023-03-04T04:37:47.356Z,2.97
2023-03-04T04:40:14.621Z,3.65
2023-03-04T04:42:41.523Z,3.78
2023-03-04T04:45:09.222Z,5.53
2023-03-04T04:47:36.302Z,3.42
2023-03-04T04:50:03.367Z,3.90
2023-03-04T04:52:30.315Z,3.28
2023-03-04T04:54:57.269Z,3.83
2023-03-04T04:57:24.418Z,2.65
2023-03-04T04:59:51.651Z,3.35
2023-03-04T05:02:18.637Z,2.47
2023-03-04T05:04:45.543Z,2.50
2023-03-04T05:07:12.447Z,2.35
2023-03-04T05:09:39.401Z,3.63
2023-03-04T05:12:06.397Z,2.80
2023-03-04T05:14:33.290Z,2.75
2023-03-04T05:17:00.387Z,4.50
2023-03-04T05:19:27.336Z,3.28
2023-03-04T05:21:54.396Z,2.75
2023-03-04T05:24:21.658Z,2.85
2023-03-04T05:26:48.683Z,2.22
2023-03-04T05:29:15.610Z,2.95
2023-03-04T05:31:42.599Z,2.40
2023-03-04T05:34:09.500Z,2.63
2023-03-04T05:36:36.440Z,2.35
2023-03-04T05:39:03.446Z,2.30
2023-03-04T05:41:30.403Z,2.15
2023-03-04T05:43:57.402Z,3.20
2023-03-04T05:46:25.587Z,2.17
2023-03-04T05:48:54.101Z,2.28
2023-03-04T05:51:22.332Z,1.40
2023-03-04T05:53:49.475Z,2.03
2023-03-04T05:56:19.790Z,2.53
2023-03-04T05:58:47.644Z,2.20
2023-03-04T06:01:15.101Z,1.77
2023-03-04T06:03:43.550Z,2.05
2023-03-04T06:06:10.726Z,2.08
2023-03-04T06:08:37.680Z,2.83
2023-03-04T06:11:05.607Z,3.28
2023-03-04T06:13:34.176Z,2.45
2023-03-04T06:16:02.113Z,2.83
2023-03-04T06:18:29.552Z,2.75
2023-03-04T06:21:02.201Z,3.00
2023-03-04T06:23:30.032Z,2.72
2023-03-04T06:26:00.511Z,2.47
2023-03-04T06:28:28.552Z,3.22
2023-03-04T06:30:57.761Z,2.72
2023-03-04T06:38:25.789Z,3.50
2023-03-04T06:40:53.894Z,4.43
2023-03-04T06:43:21.745Z,3.50
2023-03-04T06:45:49.203Z,5.47
2023-03-04T06:48:16.171Z,4.18
2023-03-04T06:50:43.069Z,4.35
2023-03-04T06:53:10.033Z,4.85
2023-03-04T06:55:37.076Z,6.20
2023-03-04T06:58:04.064Z,6.28
2023-03-04T07:00:31.139Z,5.75
2023-03-04T07:02:59.358Z,7.38
2023-03-04T07:05:26.731Z,8.43
2023-03-04T07:07:53.745Z,15.73
2023-03-04T07:10:20.880Z,14.70
2023-03-04T07:12:47.838Z,7.88
2023-03-04T07:15:14.917Z,13.30
2023-03-04T07:17:41.888Z,8.95
2023-03-04T07:20:09.747Z,12.23
2023-03-04T07:22:36.820Z,6.95
2023-03-04T07:25:05.293Z,13.70
2023-03-04T07:27:32.338Z,7.03
2023-03-04T07:29:59.470Z,8.48
2023-03-04T07:32:26.876Z,4.63
2023-03-04T07:34:53.805Z,3.15
2023-03-04T07:37:20.741Z,3.45
2023-03-04T07:39:47.650Z,3.15
2023-03-04T07:42:14.656Z,2.88
2023-03-04T07:44:42.878Z,3.10
2023-03-04T07:47:09.759Z,3.13
2023-03-04T07:49:37.086Z,3.47
2023-03-04T07:52:05.810Z,2.70
2023-03-04T07:54:32.905Z,3.78
2023-03-04T07:56:59.958Z,2.85
2023-03-04T07:59:27.180Z,2.90
2023-03-04T08:01:54.155Z,2.15
2023-03-04T08:04:21.357Z,2.22
2023-03-04T08:06:48.920Z,2.53
2023-03-04T08:09:15.906Z,3.72
2023-03-04T08:11:43.729Z,3.38
2023-03-04T08:14:13.996Z,2.92
2023-03-04T08:16:41.481Z,3.35
2023-03-04T08:19:08.622Z,3.05
2023-03-04T08:21:35.891Z,5.28
2023-03-04T08:24:08.461Z,3.75
2023-03-04T08:26:43.410Z,3.42
2023-03-04T08:29:15.026Z,2.92
2023-03-04T08:31:42.892Z,2.38
2023-03-04T08:34:10.593Z,3.60
2023-03-04T08:36:37.682Z,3.08
2023-03-04T08:39:05.761Z,2.63
2023-03-04T08:41:32.965Z,3.45
2023-03-04T08:44:01.167Z,2.95
2023-03-04T08:46:28.855Z,2.63
2023-03-04T08:48:56.087Z,2.50
2023-03-04T08:51:23.629Z,6.35
2023-03-04T08:53:50.639Z,3.28
2023-03-04T08:56:18.340Z,3.50
2023-03-04T08:58:45.425Z,3.20
2023-03-04T09:01:14.849Z,2.75
2023-03-04T09:03:42.835Z,2.42
2023-03-04T09:06:14.171Z,2.70
2023-03-04T09:08:41.104Z,2.22
2023-03-04T09:11:08.226Z,3.17
2023-03-04T09:13:35.375Z,4.63
2023-03-04T09:16:02.603Z,3.30
2023-03-04T09:18:29.803Z,3.22
2023-03-04T09:20:56.640Z,3.30
2023-03-04T09:23:23.667Z,2.33
2023-03-04T09:25:51.061Z,3.60
2023-03-04T09:28:19.498Z,3.05
2023-03-04T09:30:46.916Z,3.03
2023-03-04T09:33:14.200Z,2.22
2023-03-04T09:35:41.492Z,3.10
2023-03-04T09:38:09.120Z,3.10
2023-03-04T09:40:46.561Z,2.25
2023-03-04T09:43:29.985Z,3.05
2023-03-04T09:46:01.391Z,2.30
2023-03-04T09:48:36.179Z,2.42
2023-03-04T09:51:17.960Z,1.83
2023-03-04T09:54:07.323Z,2.00
2023-03-04T09:56:38.387Z,1.90
2023-03-04T09:59:25.903Z,2.00
2023-03-04T10:01:56.630Z,2.45
2023-03-04T10:05:03.115Z,2.78
2023-03-04T10:07:38.481Z,6.50
2023-03-04T10:10:16.825Z,5.55
2023-03-04T10:12:48.887Z,5.20
2023-03-04T10:15:39.672Z,2.42
2023-03-04T10:18:22.818Z,3.42
2023-03-04T10:21:09.835Z,2.72
2023-03-04T10:23:37.708Z,3.08
2023-03-04T10:26:14.885Z,3.22
2023-03-04T10:28:42.124Z,1.73
2023-03-04T10:31:08.963Z,3.28
2023-03-04T10:33:38.869Z,2.45
2023-03-04T10:36:30.501Z,2.17
2023-03-04T10:39:02.930Z,2.33
2023-03-04T10:41:31.745Z,1.52
2023-03-04T10:43:58.576Z,2.45
2023-03-04T10:46:26.748Z,1.55
2023-03-04T10:48:54.462Z,3.17
2023-03-04T10:51:28.673Z,2.67
2023-03-04T10:54:08.145Z,2.58
2023-03-04T10:56:55.660Z,2.30
2023-03-04T11:02:34.972Z,5.35
2023-03-04T11:05:25.318Z,1.80
2023-03-04T11:07:59.813Z,9.15
2023-03-04T11:10:42.698Z,1.75
2023-03-04T11:13:12.252Z,1.90
2023-03-04T11:16:05.042Z,7.25
2023-03-04T11:18:51.050Z,5.72
2023-03-04T11:21:25.711Z,4.95
2023-03-04T11:24:27.460Z,2.38
2023-03-04T11:27:11.795Z,1.73
2023-03-04T11:29:49.052Z,8.02
2023-03-04T11:32:28.044Z,1.55
2023-03-04T11:35:08.218Z,7.25
2023-03-04T11:37:48.822Z,5.40
2023-03-04T11:40:33.782Z,2.65
2023-03-04T11:43:45.621Z,1.52
2023-03-04T11:46:41.289Z,1.55
2023-03-04T11:49:43.103Z,1.77
2023-03-04T11:52:51.250Z,5.70
2023-03-04T11:55:32.906Z,3.00
2023-03-04T11:58:17.712Z,1.60
2023-03-04T12:00:59.042Z,1.60
2023-03-04T12:04:07.459Z,1.52
2023-03-04T12:07:20.946Z,2.05
2023-03-04T12:10:04.578Z,3.85
2023-03-04T12:13:21.184Z,1.80
2023-03-04T12:16:21.354Z,2.05
2023-03-04T12:19:05.078Z,3.25
2023-03-04T12:21:49.987Z,5.47
2023-03-04T12:24:30.709Z,5.60
2023-03-04T12:27:16.919Z,6.90
2023-03-04T12:30:36.157Z,7.70
2023-03-04T12:33:49.604Z,10.80
2023-03-04T12:37:02.459Z,11.68
2023-03-04T12:40:00.717Z,8.55
2023-03-04T12:43:04.861Z,4.72
2023-03-04T12:45:54.287Z,3.78
2023-03-04T12:49:09.897Z,6.85
2023-03-04T12:52:26.348Z,2.10
2023-03-04T12:54:58.994Z,3.17
2023-03-04T12:57:31.570Z,3.40
2023-03-04T12:59:58.388Z,2.28
2023-03-04T13:02:49.149Z,1.83
2023-03-04T13:05:37.185Z,2.20
2023-03-04T13:08:41.292Z,1.67
2023-03-04T13:11:26.459Z,2.22
2023-03-04T13:14:29.994Z,1.85
2023-03-04T13:17:42.107Z,3.13
2023-03-04T13:20:30.210Z,3.35
2023-03-04T13:23:27.013Z,2.25
2023-03-04T13:25:56.691Z,1.70
2023-03-04T13:28:29.048Z,2.65
2023-03-04T13:30:56.085Z,2.47
2023-03-04T13:33:49.934Z,3.15
2023-03-04T13:36:35.827Z,2.35
2023-03-04T13:39:14.696Z,5.05
2023-03-04T13:41:50.986Z,4.35
2023-03-04T13:44:44.073Z,4.63
2023-03-04T13:47:21.392Z,2.83
2023-03-04T13:49:48.885Z,3.50
2023-03-04T13:52:40.771Z,3.95
2023-03-04T13:55:41.053Z,3.35
2023-03-04T13:58:23.049Z,3.22
2023-03-04T14:00:55.638Z,2.67
2023-03-04T14:03:30.071Z,4.35
2023-03-04T14:06:18.152Z,5.40
2023-03-04T14:08:46.563Z,4.03
2023-03-04T14:11:39.621Z,3.28
2023-03-04T14:14:11.167Z,11.68
2023-03-04T14:16:45.079Z,9.00
2023-03-04T14:19:29.700Z,6.70
2023-03-04T14:21:57.568Z,3.92
2023-03-04T14:24:24.977Z,4.50
2023-03-04T14:27:12.420Z,3.85
2023-03-04T14:29:39.958Z,2.63
2023-03-04T14:32:07.850Z,1.65
2023-03-04T14:34:38.773Z,1.60
2023-03-04T14:37:25.961Z,1.77
2023-03-04T14:39:58.099Z,3.20
2023-03-04T14:42:36.872Z,2.05
2023-03-04T14:45:04.431Z,1.75
2023-03-04T14:47:45.258Z,1.60
2023-03-04T14:50:19.193Z,2.53
2023-03-04T14:53:15.300Z,2.47
2023-03-04T14:56:04.462Z,2.42
2023-03-04T14:58:37.179Z,1.92
2023-03-04T15:01:19.502Z,3.58
2023-03-04T15:04:04.610Z,4.32
2023-03-04T15:06:54.054Z,8.48
2023-03-04T15:09:25.359Z,8.77
2023-03-04T15:12:03.879Z,7.30
2023-03-04T15:14:46.522Z,4.40
2023-03-04T15:17:24.684Z,8.63
2023-03-04T15:20:07.813Z,13.48
2023-03-04T15:22:56.014Z,12.50
2023-03-04T15:25:23.420Z,17.25
2023-03-04T15:27:51.784Z,11.57
2023-03-04T15:30:31.204Z,13.93
2023-03-04T15:32:59.615Z,13.13
2023-03-04T15:35:33.363Z,7.40
2023-03-04T15:38:00.694Z,8.10
2023-03-04T15:40:39.136Z,7.55
2023-03-04T15:43:07.594Z,10.80
2023-03-04T15:45:38.299Z,4.38
2023-03-04T15:48:08.221Z,3.40
2023-03-04T15:50:56.261Z,3.53
2023-03-04T15:53:45.638Z,3.38
2023-03-04T15:56:17.605Z,3.13
2023-03-04T15:58:52.816Z,3.33
2023-03-04T16:01:19.998Z,4.50
2023-03-04T16:03:46.902Z,3.10
2023-03-04T16:06:18.726Z,2.60
2023-03-04T16:08:47.512Z,2.13
2023-03-04T16:11:25.233Z,2.95
2023-03-04T16:13:52.648Z,3.88
2023-03-04T16:16:19.659Z,2.05
2023-03-04T16:18:47.232Z,1.83
2023-03-04T16:21:18.084Z,2.80
2023-03-04T16:23:49.784Z,1.75
2023-03-04T16:26:28.645Z,1.48
2023-03-04T16:28:55.617Z,4.47
2023-03-04T16:31:22.948Z,4.22
2023-03-04T16:33:50.123Z,4.15
2023-03-04T16:36:25.861Z,4.60
2023-03-04T16:38:57.184Z,9.10
2023-03-04T16:41:28.773Z,10.40
2023-03-04T16:43:58.100Z,16.42
2023-03-04T16:48:52.055Z,19.52
2023-03-04T16:51:23.009Z,19.20
2023-03-04T16:53:56.468Z,13.98
2023-03-04T16:56:23.718Z,10.45
2023-03-04T16:58:51.191Z,8.20
2023-03-04T17:01:26.036Z,4.55
2023-03-04T17:03:54.156Z,2.92
2023-03-04T17:06:21.753Z,1.65
2023-03-04T17:08:48.827Z,2.70
2023-03-04T17:11:22.249Z,2.80
2023-03-04T17:13:49.986Z,6.05
2023-03-04T17:16:17.672Z,5.15
2023-03-04T17:18:46.039Z,3.53
2023-03-04T17:21:22.258Z,4.60
2023-03-04T17:23:49.522Z,2.88
2023-03-04T17:26:20.778Z,2.50
2023-03-04T17:28:49.879Z,3.13
2023-03-04T17:31:19.729Z,4.03
2023-03-04T17:33:48.065Z,5.43
2023-03-04T17:36:18.588Z,7.22
2023-03-04T17:38:46.243Z,8.63
2023-03-04T17:41:18.074Z,10.13
2023-03-04T17:43:50.811Z,11.25
2023-03-04T17:46:21.493Z,11.88
2023-03-04T17:48:49.383Z,11.38
2023-03-04T17:51:16.407Z,9.15
2023-03-04T17:53:43.328Z,8.10
2023-03-04T17:56:12.342Z,8.32
2023-03-04T17:58:39.992Z,9.18
2023-03-04T18:01:20.087Z,9.65
2023-03-04T18:03:48.127Z,6.65
2023-03-04T18:06:15.208Z,8.00
2023-03-04T18:08:42.109Z,6.57
2023-03-04T18:11:09.596Z,7.03
2023-03-04T18:13:42.228Z,6.18
2023-03-04T18:16:11.804Z,8.35
2023-03-04T18:18:39.034Z,8.38
2023-03-04T18:21:06.521Z,6.47
2023-03-04T18:23:35.684Z,5.63
2023-03-04T18:26:04.319Z,4.00
2023-03-04T18:28:31.726Z,3.88
2023-03-04T18:30:58.764Z,4.47
2023-03-04T18:33:25.665Z,8.55
2023-03-04T18:36:02.230Z,12.45
2023-03-04T18:38:30.023Z,13.10
2023-03-04T18:41:02.263Z,12.95
2023-03-04T18:43:29.230Z,16.52
2023-03-04T18:46:26.699Z,11.63
2023-03-04T18:48:56.628Z,7.30
2023-03-04T18:51:23.725Z,4.70
2023-03-04T18:53:50.669Z,3.70
2023-03-04T18:56:28.176Z,3.38
2023-03-04T18:58:55.340Z,3.78
2023-03-04T19:01:25.087Z,5.15
2023-03-04T19:03:54.397Z,7.40
2023-03-04T19:06:22.573Z,13.98
2023-03-04T19:08:55.100Z,14.45
2023-03-04T19:11:24.652Z,10.88
2023-03-04T19:13:52.261Z,7.90
2023-03-04T19:16:19.287Z,8.10
2023-03-04T19:18:46.423Z,6.75
2023-03-04T19:21:13.399Z,7.05
2023-03-04T19:23:40.445Z,9.00
2023-03-04T19:26:08.241Z,5.43
2023-03-04T19:28:35.822Z,6.32
2023-03-04T19:31:11.129Z,3.63
2023-03-04T19:38:34.319Z,4.53
2023-03-04T19:41:13.848Z,4.75
2023-03-04T19:43:41.416Z,5.18
2023-03-04T19:46:10.093Z,7.75
2023-03-04T19:48:38.510Z,7.05
2023-03-04T19:51:15.666Z,5.65
2023-03-04T19:53:42.758Z,3.35
2023-03-04T19:56:10.160Z,3.92
2023-03-04T19:58:37.256Z,3.55
2023-03-04T20:01:04.574Z,3.53
2023-03-04T20:03:32.010Z,3.40
2023-03-04T20:06:04.547Z,3.72
2023-03-04T20:08:31.462Z,6.32
2023-03-04T20:10:58.470Z,5.93
2023-03-04T20:13:25.482Z,6.00
2023-03-04T20:15:52.441Z,4.53
2023-03-04T20:18:19.404Z,4.90
2023-03-04T20:20:48.818Z,4.82
2023-03-04T20:23:20.150Z,5.93
2023-03-04T20:25:47.523Z,7.38
2023-03-04T20:28:14.526Z,6.72
2023-03-04T20:30:41.553Z,10.43
2023-03-04T20:33:08.395Z,10.20
2023-03-04T20:35:35.404Z,8.35
2023-03-04T20:38:03.277Z,9.65
2023-03-04T20:40:30.228Z,12.23
2023-03-04T20:42:57.241Z,14.15
2023-03-04T20:45:24.794Z,16.63
2023-03-04T20:47:51.819Z,13.77
2023-03-04T20:50:19.623Z,10.18
2023-03-04T20:52:48.096Z,7.30
2023-03-04T20:55:15.170Z,5.60
2023-03-04T20:57:42.141Z,5.80
2023-03-04T21:00:10.167Z,4.32
2023-03-04T21:02:37.358Z,3.47
2023-03-04T21:05:04.756Z,4.47
2023-03-04T21:07:31.725Z,5.65
2023-03-04T21:09:58.892Z,7.00
2023-03-04T21:12:26.184Z,8.50
2023-03-04T21:14:53.218Z,10.70
2023-03-04T21:17:20.321Z,12.50
2023-03-04T21:19:47.348Z,12.15
2023-03-04T21:22:19.543Z,10.38
2023-03-04T21:24:47.820Z,10.60
2023-03-04T21:27:17.039Z,11.15
2023-03-04T21:29:44.582Z,8.85
2023-03-04T21:32:24.645Z,7.30
2023-03-04T21:34:54.358Z,8.98
2023-03-04T21:37:23.677Z,6.88
2023-03-04T21:42:17.747Z,7.97
2023-03-04T21:44:49.549Z,5.30
2023-03-04T21:47:17.674Z,4.65
2023-03-04T21:49:44.680Z,3.38
2023-03-04T21:52:11.650Z,2.75
2023-03-04T21:54:38.595Z,3.78
2023-03-04T21:57:05.651Z,5.35
2023-03-04T21:59:32.514Z,4.07
2023-03-04T22:01:59.628Z,6.13
2023-03-04T22:04:26.644Z,5.53
2023-03-04T22:06:53.527Z,7.07
2023-03-04T22:09:20.555Z,9.52
2023-03-04T22:11:47.471Z,6.97
2023-03-04T22:14:14.386Z,4.10
2023-03-04T22:16:54.347Z,3.40
2023-03-04T22:19:24.535Z,5.68
2023-03-04T22:21:52.695Z,3.60
2023-03-04T22:24:20.636Z,3.58
2023-03-04T22:26:47.725Z,1.98
2023-03-04T22:29:14.665Z,3.20
2023-03-04T22:31:41.890Z,2.83
2023-03-04T22:34:12.386Z,2.58
2023-03-04T22:36:42.795Z,3.05
2023-03-04T22:39:13.294Z,2.60
2023-03-04T22:41:40.993Z,2.75
2023-03-04T22:44:08.155Z,2.30
2023-03-04T22:46:38.234Z,2.65
2023-03-04T22:49:10.227Z,2.47
2023-03-04T22:51:41.089Z,2.40
2023-03-04T22:54:08.508Z,2.47
2023-03-04T22:56:36.501Z,2.85
2023-03-04T22:59:03.415Z,2.88
2023-03-04T23:01:30.479Z,2.42
2023-03-04T23:03:57.538Z,2.15
2023-03-04T23:06:27.781Z,2.25
2023-03-04T23:08:56.611Z,3.92
2023-03-04T23:11:30.964Z,2.97
2023-03-04T23:13:58.306Z,3.05
2023-03-04T23:16:27.822Z,2.35
2023-03-04T23:18:55.607Z,2.47
2023-03-04T23:21:25.616Z,1.58
2023-03-04T23:23:53.227Z,1.70
2023-03-04T23:26:27.184Z,1.92
2023-03-04T23:28:56.858Z,2.05
2023-03-04T23:31:25.558Z,1.95
2023-03-04T23:33:57.248Z,2.25
2023-03-04T23:36:27.729Z,3.35
2023-03-04T23:38:55.130Z,4.13
2023-03-04T23:41:26.514Z,2.58
2023-03-04T23:43:56.279Z,1.90
2023-03-04T23:46:24.492Z,2.42
2023-03-04T23:48:52.757Z,4.78
2023-03-04T23:51:23.724Z,2.25
2023-03-04T23:53:51.235Z,2.97
2023-03-04T23:56:24.923Z,4.13
2023-03-04T23:58:52.134Z,5.82
